createdAt,value
2023-03-01T00:00:43.649Z,35.10
2023-03-01T00:02:45.415Z,35.00
2023-03-01T00:04:47.180Z,35.00
2023-03-01T00:06:49.012Z,35.10
2023-03-01T00:08:51.159Z,35.10
2023-03-01T00:11:11.437Z,35.10
2023-03-01T00:13:13.254Z,35.00
2023-03-01T00:15:14.994Z,35.00
2023-03-01T00:17:16.809Z,35.00
2023-03-01T00:19:20.079Z,35.20
2023-03-01T00:21:22.504Z,35.10
2023-03-01T00:23:24.525Z,35.10
2023-03-01T00:25:26.301Z,35.10
2023-03-01T00:27:28.058Z,35.10
2023-03-01T00:29:29.943Z,35.10
2023-03-01T00:31:32.531Z,34.90
2023-03-01T00:33:34.747Z,35.00
2023-03-01T00:35:36.980Z,35.10
2023-03-01T00:37:38.774Z,35.00
2023-03-01T00:39:40.539Z,35.10
2023-03-01T00:41:42.730Z,35.10
2023-03-01T00:43:44.888Z,35.10
2023-03-01T00:45:46.697Z,35.10
2023-03-01T00:47:49.393Z,35.00
2023-03-01T00:49:51.195Z,35.00
2023-03-01T00:51:53.078Z,35.10
2023-03-01T00:53:55.580Z,35.00
2023-03-01T00:55:58.195Z,35.00
2023-03-01T00:57:59.929Z,35.00
2023-03-01T01:00:01.698Z,35.20
2023-03-01T01:02:03.502Z,35.20
2023-03-01T01:04:10.311Z,35.10
2023-03-01T01:06:16.787Z,35.20
2023-03-01T01:08:19.035Z,35.20
2023-03-01T01:10:21.997Z,35.10
2023-03-01T01:12:23.842Z,35.20
2023-03-01T01:14:25.613Z,35.10
2023-03-01T01:16:28.119Z,35.00
2023-03-01T01:18:29.978Z,35.10
2023-03-01T01:20:31.886Z,35.10
2023-03-01T01:22:34.117Z,35.10
2023-03-01T01:24:36.056Z,35.10
2023-03-01T01:26:37.937Z,35.10
2023-03-01T01:28:40.174Z,35.10
2023-03-01T01:30:43.186Z,35.10
2023-03-01T01:32:45.057Z,35.20
2023-03-01T01:34:46.794Z,35.20
2023-03-01T01:36:49.559Z,35.10
2023-03-01T01:38:51.686Z,35.10
2023-03-01T01:40:53.582Z,35.10
2023-03-01T01:42:55.346Z,35.20
2023-03-01T01:45:15.654Z,35.20
2023-03-01T01:47:19.199Z,35.20
2023-03-01T01:49:27.939Z,35.20
2023-03-01T01:51:32.473Z,35.10
2023-03-01T01:53:34.278Z,35.20
2023-03-01T01:55:37.163Z,35.20
2023-03-01T01:57:44.144Z,35.10
2023-03-01T01:59:49.691Z,35.20
2023-03-01T02:01:52.600Z,35.20
2023-03-01T02:03:54.403Z,35.20
2023-03-01T02:05:56.175Z,35.20
2023-03-01T02:07:59.198Z,35.20
2023-03-01T02:10:01.261Z,35.10
2023-03-01T02:12:04.503Z,35.20
2023-03-01T02:14:06.302Z,35.20
2023-03-01T02:16:12.637Z,35.20
2023-03-01T02:18:17.441Z,35.30
2023-03-01T02:20:28.298Z,35.30
2023-03-01T02:22:32.302Z,35.20
2023-03-01T02:25:03.666Z,35.20
2023-03-01T02:27:05.487Z,35.30
2023-03-01T02:29:07.382Z,35.70
2023-03-01T02:31:10.291Z,35.20
2023-03-01T02:33:12.543Z,35.10
2023-03-01T02:35:15.155Z,35.00
2023-03-01T02:37:17.167Z,35.10
2023-03-01T02:39:24.747Z,35.20
2023-03-01T02:41:29.022Z,35.20
2023-03-01T02:43:32.295Z,35.20
2023-03-01T02:45:34.055Z,35.20
2023-03-01T02:47:35.830Z,35.20
2023-03-01T02:49:38.113Z,35.10
2023-03-01T02:51:58.604Z,35.20
2023-03-01T02:54:06.980Z,35.10
2023-03-01T02:56:09.375Z,35.10
2023-03-01T02:58:11.290Z,35.20
2023-03-01T03:00:15.481Z,35.20
2023-03-01T03:02:22.038Z,35.20
2023-03-01T03:04:23.904Z,35.20
2023-03-01T03:06:25.797Z,35.10
2023-03-01T03:08:27.574Z,35.10
2023-03-01T03:10:31.976Z,35.20
2023-03-01T03:12:33.794Z,35.10
2023-03-01T03:15:00.601Z,35.20
2023-03-01T03:17:02.379Z,35.20
2023-03-01T03:19:04.969Z,35.20
2023-03-01T03:21:09.766Z,35.20
2023-03-01T03:23:11.557Z,35.20
2023-03-01T03:25:13.405Z,35.30
2023-03-01T03:27:15.201Z,35.20
2023-03-01T03:29:16.964Z,35.20
2023-03-01T03:31:18.842Z,35.30
2023-03-01T03:33:20.569Z,35.30
2023-03-01T03:35:27.407Z,35.20
2023-03-01T03:53:40.894Z,35.30
2023-03-01T03:55:42.614Z,35.20
2023-03-01T03:57:44.421Z,35.20
2023-03-01T03:59:46.141Z,35.20
2023-03-01T04:01:47.953Z,35.30
2023-03-01T04:03:50.016Z,35.30
2023-03-01T04:05:52.388Z,35.20
2023-03-01T04:07:54.162Z,35.20
2023-03-01T04:09:55.822Z,35.20
2023-03-01T04:11:57.502Z,35.30
2023-03-01T04:13:59.293Z,35.40
2023-03-01T04:16:00.998Z,35.40
2023-03-01T04:18:03.113Z,35.30
2023-03-01T04:20:05.105Z,35.30
2023-03-01T04:22:06.771Z,35.20
2023-03-01T04:24:08.595Z,35.30
2023-03-01T04:26:10.319Z,35.30
2023-03-01T04:28:12.638Z,35.30
2023-03-01T04:30:14.528Z,35.20
2023-03-01T04:32:16.369Z,35.30
2023-03-01T04:34:18.234Z,35.30
2023-03-01T04:36:21.033Z,35.30
2023-03-01T04:38:22.911Z,35.30
2023-03-01T04:40:24.641Z,36.00
2023-03-01T04:42:26.387Z,35.30
2023-03-01T04:44:28.194Z,35.30
2023-03-01T04:46:30.164Z,35.20
2023-03-01T04:48:32.160Z,35.30
2023-03-01T04:50:34.013Z,35.30
2023-03-01T04:52:36.003Z,35.40
2023-03-01T04:54:37.777Z,35.40
2023-03-01T04:56:39.540Z,35.30
2023-03-01T04:58:41.354Z,35.40
2023-03-01T05:00:43.158Z,35.30
2023-03-01T05:02:44.854Z,35.30
2023-03-01T05:04:46.648Z,35.30
2023-03-01T05:06:48.424Z,35.30
2023-03-01T05:08:50.144Z,35.30
2023-03-01T05:10:52.856Z,35.40
2023-03-01T05:12:54.655Z,35.40
2023-03-01T05:14:56.325Z,35.40
2023-03-01T05:16:58.074Z,35.50
2023-03-01T05:19:00.169Z,35.40
2023-03-01T05:21:06.041Z,35.80
2023-03-01T05:23:07.770Z,35.20
2023-03-01T05:25:09.639Z,35.20
2023-03-01T05:27:11.646Z,35.20
2023-03-01T05:29:13.415Z,35.30
2023-03-01T05:31:15.277Z,35.30
2023-03-01T05:33:17.039Z,35.30
2023-03-01T05:35:18.908Z,35.20
2023-03-01T05:37:20.843Z,35.30
2023-03-01T05:39:23.625Z,35.30
2023-03-01T05:41:25.398Z,35.30
2023-03-01T05:43:27.204Z,35.30
2023-03-01T05:45:28.917Z,35.30
2023-03-01T05:47:30.687Z,35.30
2023-03-01T05:49:32.517Z,35.30
2023-03-01T05:51:34.270Z,35.30
2023-03-01T05:53:36.013Z,35.30
2023-03-01T05:55:38.332Z,35.30
2023-03-01T05:57:40.063Z,35.30
2023-03-01T05:59:41.807Z,35.40
2023-03-01T06:01:43.504Z,35.30
2023-03-01T06:03:45.226Z,35.30
2023-03-01T06:05:47.069Z,35.40
2023-03-01T06:07:49.237Z,35.30
2023-03-01T06:09:50.976Z,35.40
2023-03-01T06:11:52.753Z,35.40
2023-03-01T06:13:54.599Z,35.30
2023-03-01T06:15:56.353Z,35.30
2023-03-01T06:17:59.699Z,35.30
2023-03-01T06:20:02.041Z,35.40
2023-03-01T06:22:03.802Z,35.30
2023-03-01T06:24:05.644Z,35.40
2023-03-01T06:26:08.232Z,35.30
2023-03-01T06:28:09.895Z,35.40
2023-03-01T06:30:12.990Z,35.40
2023-03-01T06:32:14.755Z,35.30
2023-03-01T06:34:16.626Z,35.30
2023-03-01T06:36:18.326Z,35.20
2023-03-01T06:38:20.049Z,35.30
2023-03-01T06:40:21.829Z,35.30
2023-03-01T06:42:23.486Z,35.30
2023-03-01T06:44:25.374Z,35.30
2023-03-01T06:46:27.283Z,35.30
2023-03-01T06:48:29.044Z,35.30
2023-03-01T06:50:30.866Z,35.40
2023-03-01T06:52:32.641Z,35.40
2023-03-01T06:54:34.340Z,35.30
2023-03-01T06:56:36.211Z,35.40
2023-03-01T06:58:37.967Z,35.30
2023-03-01T07:00:39.692Z,35.30
2023-03-01T07:02:41.519Z,35.40
2023-03-01T07:04:43.481Z,35.40
2023-03-01T07:06:45.221Z,35.40
2023-03-01T07:08:46.995Z,35.30
2023-03-01T07:10:49.104Z,35.40
2023-03-01T07:12:55.028Z,35.60
2023-03-01T07:14:56.725Z,35.50
2023-03-01T07:16:58.451Z,35.40
2023-03-01T07:19:00.875Z,35.30
2023-03-01T07:21:07.125Z,35.40
2023-03-01T07:23:08.807Z,35.30
2023-03-01T07:25:10.993Z,35.30
2023-03-01T07:27:12.901Z,35.30
2023-03-01T07:29:14.566Z,35.40
2023-03-01T07:31:16.406Z,35.30
2023-03-01T07:33:18.441Z,35.20
2023-03-01T07:35:20.107Z,35.30
2023-03-01T07:37:21.906Z,35.20
2023-03-01T07:39:23.731Z,35.30
2023-03-01T07:41:25.885Z,35.40
2023-03-01T07:43:28.341Z,35.30
2023-03-01T07:45:30.186Z,35.30
2023-03-01T07:47:32.381Z,35.40
2023-03-01T07:49:34.073Z,35.40
2023-03-01T07:51:35.820Z,35.40
2023-03-01T07:53:37.638Z,35.40
2023-03-01T07:55:39.355Z,35.30
2023-03-01T07:57:41.154Z,35.40
2023-03-01T07:59:42.905Z,35.40
2023-03-01T08:01:44.609Z,35.30
2023-03-01T08:03:46.547Z,35.30
2023-03-01T08:05:48.229Z,35.40
2023-03-01T08:07:50.185Z,36.20
2023-03-01T08:09:51.930Z,35.10
2023-03-01T08:11:53.687Z,35.90
2023-03-01T08:13:55.562Z,35.40
2023-03-01T08:16:08.063Z,35.10
2023-03-01T08:18:09.890Z,35.70
2023-03-01T08:20:11.827Z,35.10
2023-03-01T08:22:13.557Z,34.70
2023-03-01T08:24:15.328Z,34.60
2023-03-01T08:26:18.718Z,34.50
2023-03-01T08:28:20.516Z,34.60
2023-03-01T08:32:47.990Z,34.70
2023-03-01T08:34:49.769Z,34.60
2023-03-01T08:36:51.475Z,34.40
2023-03-01T08:38:53.654Z,34.10
2023-03-01T08:40:55.906Z,34.10
2023-03-01T08:42:59.107Z,33.70
2023-03-01T08:45:01.707Z,33.50
2023-03-01T08:47:04.169Z,33.10
2023-03-01T08:49:12.084Z,32.90
2023-03-01T08:51:16.154Z,33.00
2023-03-01T08:53:17.837Z,33.40
2023-03-01T08:55:19.545Z,33.20
2023-03-01T08:57:21.240Z,33.40
2023-03-01T08:59:22.937Z,33.30
2023-03-01T09:01:24.673Z,33.50
2023-03-01T09:03:26.821Z,33.50
2023-03-01T09:05:28.619Z,33.80
2023-03-01T09:07:30.338Z,34.50
2023-03-01T09:09:32.050Z,34.30
2023-03-01T09:11:33.734Z,33.50
2023-03-01T09:13:36.085Z,32.30
2023-03-01T09:15:38.563Z,33.90
2023-03-01T09:17:40.314Z,31.70
2023-03-01T09:19:42.030Z,32.80
2023-03-01T09:21:43.895Z,33.20
2023-03-01T09:23:46.705Z,32.90
2023-03-01T09:25:48.458Z,33.30
2023-03-01T09:27:53.811Z,34.20
2023-03-01T09:29:55.576Z,33.70
2023-03-01T09:31:57.353Z,33.30
2023-03-01T09:33:59.149Z,33.90
2023-03-01T09:36:05.192Z,33.80
2023-03-01T09:38:06.973Z,34.00
2023-03-01T09:40:12.895Z,34.10
2023-03-01T09:42:14.674Z,33.90
2023-03-01T09:44:16.353Z,33.70
2023-03-01T09:46:18.196Z,33.70
2023-03-01T09:48:21.233Z,33.40
2023-03-01T09:50:23.064Z,33.60
2023-03-01T09:52:42.226Z,33.70
2023-03-01T09:54:43.959Z,33.70
2023-03-01T09:56:51.201Z,33.80
2023-03-01T09:59:16.106Z,33.80
2023-03-01T10:01:20.927Z,33.50
2023-03-01T10:03:27.351Z,33.70
2023-03-01T10:05:32.157Z,33.70
2023-03-01T10:07:55.734Z,33.80
2023-03-01T10:09:58.292Z,33.90
2023-03-01T10:12:04.570Z,34.10
2023-03-01T10:14:14.054Z,33.90
2023-03-01T10:16:17.810Z,33.90
2023-03-01T10:18:21.378Z,34.20
2023-03-01T10:20:26.913Z,34.10
2023-03-01T10:22:29.495Z,34.00
2023-03-01T10:24:34.977Z,34.40
2023-03-01T10:26:56.445Z,34.50
2023-03-01T10:29:06.497Z,34.60
2023-03-01T10:31:13.135Z,34.60
2023-03-01T10:33:17.976Z,34.40
2023-03-01T10:35:20.944Z,34.60
2023-03-01T10:37:23.083Z,35.10
2023-03-01T10:39:26.513Z,34.30
2023-03-01T10:41:28.310Z,33.90
2023-03-01T10:43:44.047Z,33.90
2023-03-01T10:45:45.900Z,32.70
2023-03-01T10:47:47.642Z,33.80
2023-03-01T10:49:58.527Z,33.50
2023-03-01T10:52:18.230Z,33.60
2023-03-01T10:54:19.967Z,33.20
2023-03-01T10:56:21.722Z,33.30
2023-03-01T10:58:23.567Z,33.40
2023-03-01T11:00:26.387Z,33.60
2023-03-01T11:02:31.222Z,33.70
2023-03-01T11:04:32.977Z,34.00
2023-03-01T11:06:35.897Z,34.40
2023-03-01T11:08:37.608Z,33.90
2023-03-01T11:10:39.353Z,34.00
2023-03-01T11:12:41.229Z,33.60
2023-03-01T11:14:50.463Z,33.50
2023-03-01T11:17:05.942Z,33.50
2023-03-01T11:19:10.418Z,33.20
2023-03-01T11:21:12.163Z,33.90
2023-03-01T11:23:15.038Z,33.60
2023-03-01T11:25:18.326Z,33.80
2023-03-01T11:27:31.531Z,33.80
2023-03-01T11:29:47.691Z,33.80
2023-03-01T11:31:57.612Z,33.60
2023-03-01T11:33:59.567Z,33.50
2023-03-01T11:36:04.294Z,33.50
2023-03-01T11:38:13.755Z,33.50
2023-03-01T11:40:23.049Z,33.50
2023-03-01T11:42:38.577Z,33.50
2023-03-01T11:44:42.845Z,33.50
2023-03-01T11:47:03.073Z,33.60
2023-03-01T11:49:14.079Z,33.60
2023-03-01T11:51:25.207Z,33.70
2023-03-01T11:53:45.390Z,33.80
2023-03-01T11:55:52.922Z,33.80
2023-03-01T11:58:13.351Z,33.80
2023-03-01T12:00:18.133Z,33.80
2023-03-01T12:02:35.193Z,33.90
2023-03-01T12:04:45.808Z,34.00
2023-03-01T12:06:57.780Z,34.00
2023-03-01T12:09:05.764Z,34.00
2023-03-01T12:11:19.644Z,34.10
2023-03-01T12:13:30.695Z,34.00
2023-03-01T12:15:52.424Z,34.10
2023-03-01T12:17:56.991Z,34.10
2023-03-01T12:20:10.904Z,34.30
2023-03-01T12:22:29.766Z,34.30
2023-03-01T12:24:43.624Z,34.40
2023-03-01T12:26:45.301Z,34.60
2023-03-01T12:29:13.383Z,34.60
2023-03-01T12:31:34.303Z,34.70
2023-03-01T12:33:44.498Z,34.90
2023-03-01T12:35:46.202Z,35.00
2023-03-01T12:38:06.269Z,35.30
2023-03-01T12:40:17.187Z,35.20
2023-03-01T12:42:18.944Z,35.20
2023-03-01T12:44:30.458Z,35.20
2023-03-01T12:46:57.759Z,35.30
2023-03-01T12:49:15.018Z,35.50
2023-03-01T12:51:18.587Z,35.60
2023-03-01T12:53:35.850Z,35.20
2023-03-01T12:55:39.640Z,35.40
2023-03-01T12:57:43.818Z,35.50
2023-03-01T13:00:04.081Z,35.40
2023-03-01T13:02:20.301Z,35.40
2023-03-01T13:04:40.906Z,35.30
2023-03-01T13:06:56.801Z,35.40
2023-03-01T13:09:10.844Z,35.40
2023-03-01T13:11:20.358Z,35.40
2023-03-01T13:13:23.923Z,35.40
2023-03-01T13:15:27.076Z,35.30
2023-03-01T13:17:31.467Z,35.40
2023-03-01T13:19:33.399Z,35.30
2023-03-01T13:21:35.157Z,35.30
2023-03-01T13:23:39.304Z,35.10
2023-03-01T13:26:14.035Z,35.20
2023-03-01T13:28:42.071Z,35.00
2023-03-01T13:30:43.876Z,34.80
2023-03-01T13:32:45.652Z,34.80
2023-03-01T13:34:48.436Z,35.00
2023-03-01T13:36:50.483Z,34.80
2023-03-01T13:38:55.196Z,34.20
2023-03-01T13:40:56.892Z,33.30
2023-03-01T13:43:18.502Z,33.00
2023-03-01T13:45:39.081Z,33.70
2023-03-01T13:47:42.424Z,33.50
2023-03-01T13:49:47.265Z,33.50
2023-03-01T13:51:49.935Z,33.70
2023-03-01T13:53:52.774Z,33.70
2023-03-01T13:56:03.777Z,33.30
2023-03-01T13:58:15.073Z,33.90
2023-03-01T14:00:27.503Z,33.70
2023-03-01T14:02:29.271Z,33.80
2023-03-01T14:04:32.367Z,34.20
2023-03-01T14:06:34.984Z,34.00
2023-03-01T14:08:37.355Z,33.90
2023-03-01T14:10:54.480Z,33.90
2023-03-01T14:13:15.677Z,34.10
2023-03-01T14:15:30.117Z,33.90
2023-03-01T14:17:50.369Z,34.00
2023-03-01T14:19:59.472Z,34.20
2023-03-01T14:22:05.306Z,33.90
2023-03-01T14:24:15.750Z,33.90
2023-03-01T14:26:21.759Z,33.90
2023-03-01T14:28:30.496Z,33.90
2023-03-01T14:30:37.491Z,34.00
2023-03-01T14:32:39.454Z,34.00
2023-03-01T14:34:48.781Z,34.20
2023-03-01T14:36:50.842Z,34.70
2023-03-01T14:38:52.677Z,34.50
2023-03-01T14:40:57.007Z,35.00
2023-03-01T14:43:00.383Z,34.60
2023-03-01T14:45:02.925Z,34.80
2023-03-01T14:47:05.401Z,34.10
2023-03-01T14:49:10.823Z,34.10
2023-03-01T14:51:13.178Z,34.20
2023-03-01T14:53:18.872Z,34.40
2023-03-01T14:55:22.218Z,34.10
2023-03-01T14:57:25.108Z,34.30
2023-03-01T14:59:26.917Z,34.30
2023-03-01T15:01:28.851Z,34.20
2023-03-01T15:03:44.152Z,34.10
2023-03-01T15:05:46.101Z,34.20
2023-03-01T15:07:47.867Z,34.30
2023-03-01T15:09:49.701Z,35.00
2023-03-01T15:11:51.383Z,34.60
2023-03-01T15:13:53.445Z,34.50
2023-03-01T15:16:02.725Z,34.60
2023-03-01T15:18:06.597Z,34.80
2023-03-01T15:20:17.739Z,35.10
2023-03-01T15:22:19.498Z,34.70
2023-03-01T15:24:23.799Z,34.70
2023-03-01T15:26:28.564Z,34.90
2023-03-01T15:28:32.501Z,34.90
2023-03-01T15:30:36.149Z,34.70
2023-03-01T15:32:38.215Z,34.90
2023-03-01T15:34:40.037Z,34.90
2023-03-01T15:36:44.156Z,34.90
2023-03-01T15:38:51.936Z,34.70
2023-03-01T15:40:53.996Z,33.80
2023-03-01T15:42:55.658Z,34.60
2023-03-01T15:45:09.465Z,33.80
2023-03-01T15:47:40.633Z,34.80
2023-03-01T15:49:54.268Z,34.00
2023-03-01T15:51:56.674Z,34.00
2023-03-01T15:54:00.141Z,34.10
2023-03-01T15:56:03.013Z,34.40
2023-03-01T15:58:06.522Z,34.20
2023-03-01T16:00:11.622Z,34.20
2023-03-01T16:02:13.600Z,34.30
2023-03-01T16:04:17.243Z,34.30
2023-03-01T16:06:18.960Z,34.40
2023-03-01T16:08:20.786Z,34.40
2023-03-01T16:10:22.722Z,34.50
2023-03-01T16:12:24.813Z,35.10
2023-03-01T16:14:26.650Z,34.90
2023-03-01T16:16:28.454Z,34.80
2023-03-01T16:18:30.179Z,34.70
2023-03-01T16:20:33.991Z,34.90
2023-03-01T16:22:35.809Z,35.00
2023-03-01T16:24:37.521Z,34.80
2023-03-01T16:26:41.528Z,34.80
2023-03-01T16:28:43.521Z,34.80
2023-03-01T16:30:48.325Z,34.80
2023-03-01T16:32:51.248Z,34.70
2023-03-01T16:34:53.135Z,35.00
2023-03-01T16:36:54.846Z,34.90
2023-03-01T16:38:58.590Z,35.00
2023-03-01T16:41:00.300Z,34.80
2023-03-01T16:43:02.152Z,35.00
2023-03-01T16:45:09.110Z,35.00
2023-03-01T16:47:15.633Z,35.50
2023-03-01T16:49:17.385Z,34.40
2023-03-01T16:51:19.596Z,34.70
2023-03-01T16:53:21.339Z,34.10
2023-03-01T16:55:23.099Z,33.90
2023-03-01T16:57:24.907Z,33.70
2023-03-01T16:59:26.785Z,33.90
2023-03-01T17:01:28.658Z,33.60
2023-03-01T17:03:30.637Z,33.90
2023-03-01T17:05:32.468Z,34.10
2023-03-01T17:07:34.719Z,34.00
2023-03-01T17:09:37.302Z,33.70
2023-03-01T17:11:39.052Z,34.10
2023-03-01T17:13:41.288Z,33.80
2023-03-01T17:15:43.038Z,33.70
2023-03-01T17:17:44.903Z,34.00
2023-03-01T17:19:46.723Z,33.70
2023-03-01T17:21:48.480Z,33.70
2023-03-01T17:23:50.374Z,33.10
2023-03-01T17:25:52.907Z,32.70
2023-03-01T17:27:54.673Z,32.30
2023-03-01T17:29:56.489Z,32.50
2023-03-01T17:31:58.454Z,32.00
2023-03-01T17:34:01.624Z,31.40
2023-03-01T17:36:03.762Z,31.60
2023-03-01T17:38:05.641Z,31.60
2023-03-01T17:40:07.712Z,32.50
2023-03-01T17:42:09.514Z,31.80
2023-03-01T17:44:11.333Z,32.50
2023-03-01T17:46:13.255Z,33.00
2023-03-01T17:48:15.755Z,33.60
2023-03-01T17:50:17.599Z,33.10
2023-03-01T17:52:19.375Z,33.10
2023-03-01T17:54:21.191Z,33.00
2023-03-01T17:56:22.907Z,32.80
2023-03-01T17:58:24.646Z,32.80
2023-03-01T18:00:26.490Z,32.80
2023-03-01T18:02:28.293Z,32.90
2023-03-01T18:04:30.119Z,33.00
2023-03-01T18:06:32.127Z,33.00
2023-03-01T18:08:34.056Z,33.10
2023-03-01T18:10:35.851Z,33.20
2023-03-01T18:12:37.838Z,33.20
2023-03-01T18:14:39.607Z,33.40
2023-03-01T18:16:41.432Z,33.50
2023-03-01T18:18:43.443Z,33.60
2023-03-01T18:20:45.192Z,33.60
2023-03-01T18:22:47.062Z,33.70
2023-03-01T18:24:48.826Z,33.80
2023-03-01T18:26:50.617Z,33.80
2023-03-01T18:28:52.682Z,33.90
2023-03-01T18:31:01.430Z,33.90
2023-03-01T18:33:03.235Z,34.00
2023-03-01T18:35:05.403Z,34.00
2023-03-01T18:37:09.773Z,34.10
2023-03-01T18:39:11.974Z,34.20
2023-03-01T18:41:13.743Z,34.10
2023-03-01T18:43:15.528Z,34.20
2023-03-01T18:45:17.269Z,34.20
2023-03-01T18:47:19.103Z,34.20
2023-03-01T18:49:20.878Z,34.30
2023-03-01T18:51:26.691Z,34.30
2023-03-01T18:53:28.467Z,34.40
2023-03-01T18:55:30.324Z,34.40
2023-03-01T18:57:32.114Z,34.40
2023-03-01T18:59:33.876Z,34.40
2023-03-01T19:01:37.547Z,34.50
2023-03-01T19:03:39.593Z,34.50
2023-03-01T19:05:41.351Z,34.60
2023-03-01T19:07:43.178Z,34.50
2023-03-01T19:09:44.940Z,34.60
2023-03-01T19:11:46.751Z,34.60
2023-03-01T19:13:48.628Z,34.60
2023-03-01T19:15:50.383Z,34.60
2023-03-01T19:17:53.611Z,34.70
2023-03-01T19:19:59.609Z,34.70
2023-03-01T19:22:06.080Z,34.70
2023-03-01T19:24:08.123Z,34.70
2023-03-01T19:26:13.603Z,34.70
2023-03-01T19:28:15.384Z,34.80
2023-03-01T19:30:17.311Z,34.70
2023-03-01T19:32:19.107Z,34.80
2023-03-01T19:34:20.919Z,34.80
2023-03-01T19:36:22.678Z,34.80
2023-03-01T19:38:24.811Z,34.80
2023-03-01T19:40:26.592Z,34.80
2023-03-01T19:42:28.340Z,34.90
2023-03-01T19:44:30.147Z,34.90
2023-03-01T19:46:32.755Z,34.90
2023-03-01T19:48:34.881Z,34.90
2023-03-01T19:50:36.644Z,35.00
2023-03-01T19:52:38.946Z,34.90
2023-03-01T19:54:40.702Z,35.00
2023-03-01T19:56:42.463Z,34.90
2023-03-01T19:58:44.332Z,35.00
2023-03-01T20:00:46.910Z,35.10
2023-03-01T20:02:48.741Z,35.00
2023-03-01T20:04:50.573Z,35.00
2023-03-01T20:06:52.352Z,35.00
2023-03-01T20:08:54.134Z,35.80
2023-03-01T20:11:01.606Z,35.10
2023-03-01T20:13:03.379Z,35.10
2023-03-01T20:15:05.426Z,35.00
2023-03-01T20:17:07.171Z,35.00
2023-03-01T20:19:08.962Z,35.10
2023-03-01T20:21:22.827Z,35.10
2023-03-01T20:23:25.586Z,35.10
2023-03-01T20:25:27.426Z,35.10
2023-03-01T20:27:29.233Z,35.20
2023-03-01T20:29:30.943Z,35.20
2023-03-01T20:31:32.771Z,35.10
2023-03-01T20:33:34.642Z,35.20
2023-03-01T20:35:36.427Z,35.10
2023-03-01T20:37:38.461Z,35.10
2023-03-01T20:39:40.176Z,35.20
2023-03-01T20:41:42.017Z,35.10
2023-03-01T20:43:43.798Z,35.20
2023-03-01T20:45:45.530Z,35.20
2023-03-01T20:47:47.690Z,35.30
2023-03-01T20:49:52.505Z,35.30
2023-03-01T20:51:54.286Z,35.30
2023-03-01T20:53:56.085Z,35.20
2023-03-01T20:56:01.669Z,35.30
2023-03-01T20:58:03.531Z,35.30
2023-03-01T21:00:06.111Z,35.30
2023-03-01T21:02:07.911Z,35.30
2023-03-01T21:04:09.733Z,35.30
2023-03-01T21:06:11.943Z,35.30
2023-03-01T21:08:13.737Z,35.30
2023-03-01T21:10:15.682Z,35.30
2023-03-01T21:12:17.490Z,35.30
2023-03-01T21:14:19.229Z,35.30
2023-03-01T21:16:21.538Z,35.40
2023-03-01T21:18:23.764Z,35.40
2023-03-01T21:20:25.530Z,35.50
2023-03-01T21:22:27.340Z,35.40
2023-03-01T21:24:29.108Z,35.40
2023-03-01T21:26:31.159Z,35.40
2023-03-01T21:28:33.945Z,35.40
2023-03-01T21:31:10.694Z,35.50
2023-03-01T21:33:12.502Z,35.50
2023-03-01T21:35:14.274Z,35.40
2023-03-01T21:37:16.029Z,35.40
2023-03-01T21:39:17.840Z,35.50
2023-03-01T21:41:20.995Z,35.50
2023-03-01T21:43:23.034Z,35.50
2023-03-01T21:45:24.846Z,35.60
2023-03-01T21:47:26.686Z,35.50
2023-03-01T21:49:28.572Z,35.50
2023-03-01T21:51:30.659Z,35.50
2023-03-01T21:53:34.222Z,35.50
2023-03-01T21:55:35.951Z,35.60
2023-03-01T21:57:37.772Z,35.60
2023-03-01T21:59:39.534Z,35.50
2023-03-01T22:01:41.418Z,35.50
2023-03-01T22:03:43.874Z,35.50
2023-03-01T22:05:59.028Z,35.60
2023-03-01T22:08:00.899Z,35.60
2023-03-01T22:10:02.658Z,35.60
2023-03-01T22:12:04.598Z,35.60
2023-03-01T22:14:06.641Z,35.60
2023-03-01T22:16:08.490Z,35.60
2023-03-01T22:18:11.067Z,35.60
2023-03-01T22:20:12.927Z,35.60
2023-03-01T22:22:14.726Z,35.50
2023-03-01T22:24:17.930Z,35.60
2023-03-01T22:26:21.875Z,35.60
2023-03-01T22:28:23.683Z,35.60
2023-03-01T22:30:25.483Z,35.60
2023-03-01T22:32:27.297Z,35.60
2023-03-01T22:34:29.128Z,35.70
2023-03-01T22:36:31.252Z,35.70
2023-03-01T22:38:33.296Z,35.70
2023-03-01T22:40:35.047Z,35.70
2023-03-01T22:42:36.890Z,35.70
2023-03-01T22:44:38.602Z,35.70
2023-03-01T22:46:40.591Z,35.70
2023-03-01T22:48:42.401Z,35.80
2023-03-01T22:50:45.058Z,35.70
2023-03-01T22:52:46.870Z,35.70
2023-03-01T22:54:48.638Z,35.70
2023-03-01T22:56:50.402Z,35.80
2023-03-01T22:58:52.194Z,35.70
2023-03-01T23:00:53.946Z,35.70
2023-03-01T23:02:55.832Z,35.80
2023-03-01T23:04:57.682Z,35.80
2023-03-01T23:06:59.455Z,35.80
2023-03-01T23:09:02.358Z,35.70
2023-03-01T23:11:04.638Z,35.80
2023-03-01T23:13:10.772Z,35.80
2023-03-01T23:15:12.589Z,35.80
2023-03-01T23:17:14.374Z,35.70
2023-03-01T23:19:16.384Z,35.80
2023-03-01T23:21:19.620Z,35.80
2023-03-01T23:23:21.399Z,35.70
2023-03-01T23:25:23.199Z,35.80
2023-03-01T23:27:24.978Z,35.80
2023-03-01T23:29:26.778Z,35.80
2023-03-01T23:31:28.547Z,35.80
2023-03-01T23:33:30.962Z,35.80
2023-03-01T23:35:32.816Z,35.90
2023-03-01T23:37:34.560Z,36.30
2023-03-01T23:39:36.639Z,35.90
2023-03-01T23:41:38.924Z,35.80
2023-03-01T23:43:43.474Z,35.90
2023-03-01T23:45:45.264Z,35.90
2023-03-01T23:47:46.997Z,35.80
2023-03-01T23:49:49.919Z,35.80
2023-03-01T23:51:52.143Z,35.80
2023-03-01T23:53:55.366Z,35.80
2023-03-01T23:55:57.144Z,35.90
2023-03-01T23:57:58.912Z,35.80
